Time;durP1;ratioP1;P1;durP2;ratioP2;P2;SDS_P1;SDS_P2;PMS_P1;PMS_P2;Temp;Humidity;BMP_temperature;BMP_pressure;BME280_temperature;BME280_humidity;BME280_pressure;Samples;Min_cycle;Max_cycle;Signal;HPM_P1;HPM_P2
2022/03/22 00:01:16;;;;;;;45.22;30.45;;;;;;;5.76;nan;102985.44;5037671;28;20037;-50
2022/03/22 00:03:45;;;;;;;45.55;30.48;;;;;;;5.77;nan;102997.69;5032082;28;20064;-50
2022/03/22 00:06:10;;;;;;;45.05;30.77;;;;;;;5.40;nan;102935.03;5036298;28;20036;-50
2022/03/22 00:08:35;;;;;;;40.15;29.55;;;;;;;5.70;nan;103001.00;5040206;28;20029;-47
2022/03/22 00:11:01;;;;;;;40.35;30.10;;;;;;;5.67;nan;102998.31;5050684;28;20037;-50
2022/03/22 00:13:28;;;;;;;41.40;29.70;;;;;;;5.31;nan;102937.44;5038545;28;20064;-46
2022/03/22 00:15:55;;;;;;;43.92;30.52;;;;;;;5.22;nan;102925.06;5045715;28;20136;-48
2022/03/22 00:18:21;;;;;;;43.08;29.25;;;;;;;5.57;nan;102992.00;5046012;28;20033;-49
2022/03/22 00:20:46;;;;;;;44.90;30.83;;;;;;;5.49;nan;102980.50;5038250;28;20041;-51
2022/03/22 00:23:13;;;;;;;41.67;30.58;;;;;;;5.03;nan;102904.59;5043136;28;20033;-49
2022/03/22 00:25:38;;;;;;;44.28;29.50;;;;;;;5.00;nan;102907.13;5017162;28;20397;-51
2022/03/22 00:28:03;;;;;;;42.83;30.65;;;;;;;5.46;nan;102985.66;5034382;28;20037;-48
2022/03/22 00:30:32;;;;;;;45.20;31.25;;;;;;;5.23;nan;102963.34;5016453;28;20577;-49
2022/03/22 00:33:00;;;;;;;49.15;32.40;;;;;;;5.35;nan;102986.25;5016047;28;20042;-47
2022/03/22 00:35:28;;;;;;;44.47;31.00;;;;;;;4.98;nan;102927.09;5033829;28;20155;-51
2022/03/22 00:37:56;;;;;;;43.67;30.48;;;;;;;5.38;nan;102997.66;5016271;28;20101;-48
2022/03/22 00:40:23;;;;;;;44.55;30.92;;;;;;;5.35;nan;103014.97;5034032;28;20108;-49
2022/03/22 00:42:52;;;;;;;44.42;31.10;;;;;;;5.34;nan;103002.78;5015872;28;20037;-48
2022/03/22 00:45:19;;;;;;;41.80;29.65;;;;;;;5.30;nan;102999.22;5033815;28;20037;-48
2022/03/22 00:47:49;;;;;;;44.70;31.73;;;;;;;5.19;nan;102982.44;5015991;28;20029;-47
2022/03/22 00:50:17;;;;;;;44.63;31.02;;;;;;;5.21;nan;103006.84;5033953;28;20386;-49
2022/03/22 00:52:43;;;;;;;43.30;31.50;;;;;;;4.80;nan;102932.75;5053783;28;20024;-48
2022/03/22 00:55:10;;;;;;;42.15;30.85;;;;;;;5.19;nan;103002.44;5035793;28;20028;-48
2022/03/22 00:57:36;;;;;;;46.08;31.45;;;;;;;5.15;nan;102996.25;5053567;28;20099;-49
2022/03/22 01:00:07;;;;;;;44.88;32.60;;;;;;;5.11;nan;102995.28;5035746;28;20037;-49
2022/03/22 01:02:34;;;;;;;46.17;31.65;;;;;;;4.77;nan;102939.63;5053330;28;20029;-48
2022/03/22 01:05:06;;;;;;;49.35;31.90;;;;;;;5.10;nan;103001.38;5035523;28;20086;-52
2022/03/22 01:07:33;;;;;;;44.78;31.13;;;;;;;4.74;nan;102931.72;5035620;28;20040;-47
2022/03/22 01:10:00;;;;;;;49.35;32.50;;;;;;;4.70;nan;102928.16;5035492;28;20044;-50
2022/03/22 01:12:25;;;;;;;43.50;32.30;;;;;;;5.03;nan;102980.28;5053126;28;20079;-49
2022/03/22 01:14:52;;;;;;;46.40;33.13;;;;;;;5.17;nan;102991.06;5053047;28;20503;-51
2022/03/22 01:17:18;;;;;;;50.22;33.83;;;;;;;4.86;nan;102919.88;5053046;28;20044;-47
2022/03/22 01:19:44;;;;;;;49.70;34.25;;;;;;;5.27;nan;102985.22;5053253;28;20377;-49
2022/03/22 01:22:10;;;;;;;48.42;33.90;;;;;;;4.89;nan;102913.84;5052952;28;20052;-52
2022/03/22 01:24:35;;;;;;;47.33;32.80;;;;;;;4.96;nan;102939.25;5053145;28;20028;-50
2022/03/22 01:27:01;;;;;;;48.10;34.55;;;;;;;4.88;nan;102925.09;5034943;28;20036;-47
2022/03/22 01:29:26;;;;;;;49.33;33.17;;;;;;;5.10;nan;102971.75;5052839;28;20079;-52
2022/03/22 01:31:52;;;;;;;52.42;34.95;;;;;;;5.04;nan;102975.13;5053021;28;20088;-51
2022/03/22 01:34:17;;;;;;;51.60;35.92;;;;;;;5.06;nan;102980.34;5035108;28;20058;-54
2022/03/22 01:36:42;;;;;;;53.75;35.65;;;;;;;5.01;nan;102988.09;5052786;28;20029;-50
2022/03/22 01:39:08;;;;;;;54.70;36.42;;;;;;;4.98;nan;102974.97;5052748;28;20112;-50
2022/03/22 01:41:34;;;;;;;54.28;36.35;;;;;;;5.02;nan;102978.53;5052599;28;20040;-47
2022/03/22 01:44:00;;;;;;;51.35;36.60;;;;;;;5.03;nan;102975.06;5034994;28;20036;-47
2022/03/22 01:46:25;;;;;;;50.97;35.85;;;;;;;4.64;nan;102914.09;5034838;28;20536;-50
2022/03/22 01:48:52;;;;;;;54.10;38.17;;;;;;;4.76;nan;102930.06;5046199;28;20033;-47
2022/03/22 01:51:20;;;;;;;54.97;35.35;;;;;;;4.82;nan;102949.31;5014844;28;20507;-49
2022/03/22 01:53:47;;;;;;;52.10;35.88;;;;;;;4.60;nan;102914.84;4999241;28;20205;-48
2022/03/22 01:56:13;;;;;;;55.17;37.88;;;;;;;4.89;nan;102966.91;5032452;28;20462;-48
2022/03/22 01:58:38;;;;;;;53.17;35.13;;;;;;;4.48;nan;102900.66;5014774;28;20049;-48
2022/03/22 02:06:33;;;;;;;48.80;35.50;;;;;;;4.33;nan;102881.13;5032332;28;20436;-49
2022/03/22 02:08:59;;;;;;;53.05;36.67;;;;;;;4.85;nan;102952.00;5014723;28;20461;-48
2022/03/22 02:11:24;;;;;;;56.95;38.05;;;;;;;4.85;nan;102952.00;5014929;28;20038;-53
2022/03/22 02:13:50;;;;;;;56.15;37.45;;;;;;;4.91;nan;102948.66;5032551;28;20037;-49
2022/03/22 02:16:15;;;;;;;53.67;36.65;;;;;;;4.92;nan;102951.31;5032297;28;20038;-48
2022/03/22 02:18:42;;;;;;;53.42;37.30;;;;;;;4.53;nan;102883.41;5032243;28;20519;-48
2022/03/22 02:21:09;;;;;;;52.20;36.65;;;;;;;4.98;nan;102947.97;5014736;28;20121;-52
2022/03/22 02:23:49;;;;;;;58.75;37.42;;;;;;;4.97;nan;102949.69;5032005;28;20064;-49
2022/03/22 02:26:14;;;;;;;53.58;36.53;;;;;;;4.69;nan;102891.59;5031694;28;20064;-49
2022/03/22 02:28:42;;;;;;;50.20;36.67;;;;;;;5.04;nan;102935.06;5032152;28;20057;-48
2022/03/22 02:31:07;;;;;;;55.88;36.83;;;;;;;5.09;nan;102938.66;5032116;28;20054;-51
2022/03/22 02:33:33;;;;;;;53.38;36.03;;;;;;;4.82;nan;102881.47;5026921;28;20045;-49
2022/03/22 02:35:58;;;;;;;56.60;36.85;;;;;;;5.15;nan;102950.97;5051996;28;20029;-50
2022/03/22 02:38:24;;;;;;;51.40;37.08;;;;;;;5.16;nan;102956.25;5052016;28;20044;-51
2022/03/22 02:40:49;;;;;;;52.58;37.30;;;;;;;4.81;nan;102877.13;5052066;28;20037;-48
2022/03/22 02:43:15;;;;;;;61.13;38.28;;;;;;;5.15;nan;102935.31;5051948;28;20049;-48
2022/03/22 02:45:40;;;;;;;56.80;39.55;;;;;;;4.77;nan;102883.13;5051855;28;20037;-49
2022/03/22 02:48:06;;;;;;;56.92;36.67;;;;;;;5.11;nan;102943.06;5033988;28;20499;-50
2022/03/22 02:50:31;;;;;;;56.33;37.63;;;;;;;4.59;nan;102853.09;5051603;28;20060;-47
2022/03/22 02:52:57;;;;;;;52.58;36.92;;;;;;;4.74;nan;102882.16;5051723;28;20472;-47
2022/03/22 02:55:22;;;;;;;53.33;37.92;;;;;;;5.03;nan;102935.91;5051979;28;20040;-49
2022/03/22 02:57:48;;;;;;;58.75;37.45;;;;;;;4.91;nan;102928.69;5034007;28;20399;-48
2022/03/22 03:00:14;;;;;;;55.75;38.45;;;;;;;5.00;nan;102948.88;5051812;28;20030;-48
2022/03/22 03:02:46;;;;;;;56.28;39.22;;;;;;;4.87;nan;102933.81;5051649;28;20035;-49
2022/03/22 03:05:11;;;;;;;53.10;36.60;;;;;;;4.68;nan;102893.31;5051765;28;20056;-47
2022/03/22 03:07:37;;;;;;;57.92;38.78;;;;;;;4.87;nan;102945.13;5051437;28;20064;-47
2022/03/22 03:10:04;;;;;;;58.53;38.83;;;;;;;4.91;nan;102951.28;5034002;28;20119;-48
2022/03/22 03:12:30;;;;;;;61.00;40.65;;;;;;;4.90;nan;102949.53;5051650;28;20029;-52
2022/03/22 03:14:55;;;;;;;61.33;39.88;;;;;;;4.88;nan;102946.88;5033807;28;20037;-50
2022/03/22 03:17:20;;;;;;;59.83;39.70;;;;;;;4.91;nan;102946.94;5051652;28;20090;-49
2022/03/22 03:19:46;;;;;;;55.92;38.90;;;;;;;4.53;nan;102882.50;5051438;28;20177;-50
2022/03/22 03:22:11;;;;;;;59.05;41.42;;;;;;;4.90;nan;102939.94;5051357;28;20442;-50
2022/03/22 03:24:37;;;;;;;56.65;39.75;;;;;;;4.91;nan;102935.63;5051809;28;20033;-48
2022/03/22 03:27:03;;;;;;;52.45;37.42;;;;;;;4.92;nan;102945.22;5051573;28;20040;-50
2022/03/22 03:29:28;;;;;;;56.42;39.05;;;;;;;4.94;nan;102948.72;5033751;28;20079;-51
2022/03/22 03:31:53;;;;;;;57.45;39.05;;;;;;;4.92;nan;102933.06;5033406;28;20053;-48
2022/03/22 03:34:19;;;;;;;55.72;39.95;;;;;;;4.96;nan;102950.53;5033494;28;20056;-49
2022/03/22 03:36:45;;;;;;;60.53;39.40;;;;;;;4.98;nan;102940.16;5033424;28;20052;-49
2022/03/22 03:39:11;;;;;;;57.97;39.28;;;;;;;4.89;nan;102924.28;5020481;28;20469;-48
2022/03/22 03:41:56;;;;;;;53.22;39.78;;;;;;;4.65;nan;102885.41;5037006;28;20524;-51
2022/03/22 03:47:18;;;;;;;54.05;38.75;;;;;;;4.89;nan;102929.47;5039906;28;20044;-47
2022/03/22 03:49:46;;;;;;;56.58;39.95;;;;;;;5.04;nan;102959.47;5041236;28;20117;-49
2022/03/22 03:52:31;;;;;;;61.08;41.70;;;;;;;4.65;nan;102882.81;5034827;28;20046;-50
2022/03/22 03:54:57;;;;;;;64.97;40.97;;;;;;;5.07;nan;102958.63;5033836;28;20129;-48
2022/03/22 03:57:23;;;;;;;57.10;39.05;;;;;;;4.63;nan;102884.50;5034461;28;20041;-53
2022/03/22 03:59:49;;;;;;;62.45;40.58;;;;;;;4.98;nan;102932.31;5034893;28;20033;-49
2022/03/22 04:02:19;;;;;;;62.90;41.60;;;;;;;5.08;nan;102944.72;5016969;28;20393;-46
2022/03/22 04:04:51;;;;;;;56.70;40.60;;;;;;;5.08;nan;102944.72;5035026;28;20117;-52
2022/03/22 04:07:18;;;;;;;61.78;41.13;;;;;;;4.79;nan;102894.47;5033458;28;20035;-49
2022/03/22 04:09:43;;;;;;;60.40;41.88;;;;;;;4.73;nan;102883.03;5016595;28;20033;-49
2022/03/22 04:12:09;;;;;;;60.55;41.83;;;;;;;5.14;nan;102949.22;5034373;28;20037;-47
2022/03/22 04:14:34;;;;;;;58.70;40.88;;;;;;;5.08;nan;102945.59;5017194;28;20130;-47
2022/03/22 04:17:00;;;;;;;60.35;41.25;;;;;;;5.16;nan;102952.75;5034338;28;20040;-51
2022/03/22 04:19:26;;;;;;;60.65;41.30;;;;;;;4.94;nan;102920.91;5034251;28;20037;-49
2022/03/22 04:21:52;;;;;;;60.97;42.05;;;;;;;5.15;nan;102956.19;5034240;28;20037;-48
2022/03/22 04:24:18;;;;;;;62.30;41.08;;;;;;;4.99;nan;102923.66;5033876;28;20048;-50
2022/03/22 04:26:44;;;;;;;59.40;42.13;;;;;;;5.15;nan;102961.41;5034022;28;20037;-49
2022/03/22 04:34:41;;;;;;;60.85;44.33;;;;;;;4.80;nan;102885.78;5034312;28;20421;-50
2022/03/22 04:37:07;;;;;;;59.92;40.88;;;;;;;5.13;nan;102960.50;5032807;28;20482;-54
2022/03/22 04:39:33;;;;;;;58.80;41.00;;;;;;;5.02;nan;102927.19;5016406;28;20044;-51
2022/03/22 04:42:00;;;;;;;58.50;40.95;;;;;;;4.78;nan;102889.22;5033732;28;20033;-51
2022/03/22 04:44:27;;;;;;;61.55;43.15;;;;;;;4.84;nan;102890.25;5016086;28;20029;-51
2022/03/22 04:46:53;;;;;;;58.15;42.03;;;;;;;4.87;nan;102903.38;5033914;28;20084;-49
2022/03/22 04:49:18;;;;;;;60.17;42.17;;;;;;;4.80;nan;102895.34;5043381;28;20033;-52
2022/03/22 04:57:12;;;;;;;65.32;43.65;;;;;;;5.08;nan;102945.59;5053422;28;20055;-47
2022/03/22 04:59:37;;;;;;;64.88;43.45;;;;;;;5.10;nan;102964.81;5053633;28;20036;-48
2022/03/22 05:02:03;;;;;;;59.78;43.40;;;;;;;5.13;nan;102960.50;5053286;28;20041;-49
2022/03/22 05:04:28;;;;;;;57.53;41.67;;;;;;;3.92;nan;102753.25;5053417;28;20056;-48
2022/03/22 05:06:54;;;;;;;61.25;43.00;;;;;;;5.19;nan;102971.09;5035752;28;20377;-50
2022/03/22 05:09:19;;;;;;;62.60;44.33;;;;;;;5.17;nan;102965.81;5053161;28;20523;-49
2022/03/22 05:11:45;;;;;;;65.28;44.17;;;;;;;4.89;nan;102912.09;5053328;28;20040;-51
2022/03/22 05:14:11;;;;;;;65.80;45.08;;;;;;;5.25;nan;102971.25;5052007;28;20036;-48
2022/03/22 05:16:36;;;;;;;70.10;44.85;;;;;;;5.25;nan;102964.31;5053096;28;20037;-48
2022/03/22 05:19:04;;;;;;;61.45;42.80;;;;;;;5.03;nan;102915.03;5052836;28;20052;-52
2022/03/22 05:21:29;;;;;;;58.28;42.38;;;;;;;5.31;nan;102967.03;5053092;28;20551;-48
2022/03/22 05:23:55;;;;;;;65.18;44.78;;;;;;;4.97;nan;102912.28;5052923;28;20120;-50
2022/03/22 05:26:20;;;;;;;68.15;45.13;;;;;;;5.34;nan;102969.69;5035063;28;20128;-49
2022/03/22 05:28:46;;;;;;;63.47;43.58;;;;;;;5.32;nan;102958.34;5052726;28;20033;-49
2022/03/22 05:31:14;;;;;;;59.53;43.05;;;;;;;5.43;nan;102974.28;5052804;28;20529;-51
2022/03/22 05:33:39;;;;;;;64.68;44.13;;;;;;;5.01;nan;102901.97;5051779;28;20077;-52
2022/03/22 05:36:06;;;;;;;64.70;45.58;;;;;;;5.50;nan;102979.66;5018704;28;20079;-50
2022/03/22 05:38:32;;;;;;;63.83;43.55;;;;;;;5.26;nan;102932.09;5051578;28;20047;-51
2022/03/22 05:40:58;;;;;;;64.97;42.75;;;;;;;5.49;nan;102980.50;5051592;28;20036;-50
2022/03/22 05:43:25;;;;;;;62.38;43.63;;;;;;;5.43;nan;102984.72;5052402;28;20408;-45
2022/03/22 05:45:50;;;;;;;62.13;43.58;;;;;;;5.02;nan;102918.50;5052567;28;20036;-51
2022/03/22 05:48:16;;;;;;;62.25;40.58;;;;;;;5.34;nan;102984.53;5033390;28;20029;-47
2022/03/22 05:50:42;;;;;;;66.60;44.28;;;;;;;5.27;nan;102990.44;5032739;28;20030;-50
2022/03/22 05:53:07;;;;;;;72.18;45.42;;;;;;;5.24;nan;102990.34;5015174;28;20137;-49
2022/03/22 05:55:33;;;;;;;60.72;42.90;;;;;;;5.18;nan;102991.09;5032460;28;20033;-49
2022/03/22 05:57:58;;;;;;;65.43;45.40;;;;;;;5.15;nan;102988.41;5032526;28;20038;-50
2022/03/22 06:00:24;;;;;;;65.05;43.22;;;;;;;4.74;nan;102919.56;5031738;28;20116;-50
2022/03/22 06:02:49;;;;;;;64.97;46.47;;;;;;;4.86;nan;102924.19;5014924;28;20067;-50
2022/03/22 06:05:15;;;;;;;65.78;46.40;;;;;;;5.27;nan;102982.59;5014778;28;20025;-47
2022/03/22 06:07:41;;;;;;;68.90;45.45;;;;;;;5.28;nan;102966.97;5032518;28;20033;-49
2022/03/22 06:10:08;;;;;;;64.97;45.47;;;;;;;5.38;nan;102971.56;5032654;28;20068;-51
2022/03/22 06:12:39;;;;;;;72.65;47.00;;;;;;;5.11;nan;102930.03;5014594;28;20049;-48
2022/03/22 06:15:26;;;;;;;66.47;46.15;;;;;;;5.52;nan;102980.56;5014746;28;20033;-54
2022/03/22 06:17:56;;;;;;;65.50;46.22;;;;;;;5.40;nan;102956.78;5031817;28;20104;-49
2022/03/22 06:20:42;;;;;;;65.20;45.53;;;;;;;5.66;nan;102994.81;5032194;28;20388;-47
2022/03/22 06:23:10;;;;;;;64.80;45.83;;;;;;;5.73;nan;102995.84;5013919;28;20132;-51
2022/03/22 06:25:36;;;;;;;64.47;45.17;;;;;;;5.49;nan;102941.31;5031839;28;20040;-49
2022/03/22 06:28:03;;;;;;;69.68;45.92;;;;;;;5.90;nan;102993.59;5031571;28;20041;-49
2022/03/22 06:30:28;;;;;;;63.00;44.55;;;;;;;5.83;nan;102996.94;5032038;28;20034;-53
2022/03/22 06:32:57;;;;;;;65.70;44.75;;;;;;;5.93;nan;103001.50;5031667;28;20479;-51
2022/03/22 06:35:24;;;;;;;66.57;44.10;;;;;;;5.88;nan;102985.75;5030583;28;20108;-46
2022/03/22 06:37:50;;;;;;;66.43;44.78;;;;;;;5.94;nan;102983.25;5014464;28;20056;-46
2022/03/22 06:40:17;;;;;;;65.47;44.67;;;;;;;5.73;nan;102935.75;5014511;28;20098;-51
2022/03/22 06:42:42;;;;;;;66.70;44.78;;;;;;;6.30;nan;103011.00;5032205;28;20029;-49
2022/03/22 06:45:10;;;;;;;60.20;43.35;;;;;;;6.46;nan;103003.47;5031899;28;20131;-49
2022/03/22 06:47:37;;;;;;;60.17;42.85;;;;;;;6.62;nan;103016.00;5030471;28;20030;-47
2022/03/22 06:50:03;;;;;;;58.03;42.08;;;;;;;6.78;nan;103025.00;5029957;28;20075;-48
2022/03/22 06:52:29;;;;;;;55.60;40.15;;;;;;;6.94;nan;103018.28;5051424;28;20104;-51
2022/03/22 06:54:54;;;;;;;54.55;40.58;;;;;;;7.07;nan;103015.00;5051846;28;20037;-50
2022/03/22 06:57:20;;;;;;;49.45;39.28;;;;;;;7.16;nan;103010.81;5033841;28;20124;-50
2022/03/22 06:59:45;;;;;;;54.90;41.00;;;;;;;7.22;nan;103012.66;5042963;28;20124;-47
2022/03/22 07:02:11;;;;;;;52.38;39.63;;;;;;;7.14;nan;102983.72;5031632;28;20057;-49
2022/03/22 07:04:36;;;;;;;52.95;38.90;;;;;;;7.09;nan;102950.47;5014110;28;20025;-50
2022/03/22 07:07:02;;;;;;;53.78;39.33;;;;;;;7.70;nan;103023.00;5031599;28;20037;-52
2022/03/22 07:09:28;;;;;;;50.10;38.88;;;;;;;7.88;nan;103012.75;5014058;28;20528;-51
2022/03/22 07:11:55;;;;;;;50.80;38.33;;;;;;;8.26;nan;103032.44;5032320;28;20025;-48
2022/03/22 07:14:23;;;;;;;45.60;35.53;;;;;;;8.45;nan;103028.34;5035532;28;20029;-48
2022/03/22 07:16:48;;;;;;;47.45;36.08;;;;;;;8.60;nan;103025.00;5034460;28;20037;-47
2022/03/22 07:19:14;;;;;;;44.97;33.55;;;;;;;8.94;nan;103037.59;5017761;28;20041;-50
2022/03/22 07:21:41;;;;;;;42.10;34.00;;;;;;;8.96;nan;102978.09;5034229;28;20385;-51
2022/03/22 07:24:07;;;;;;;37.25;31.45;;;;;;;9.65;nan;103024.13;5034265;28;20029;-49
2022/03/22 07:26:32;;;;;;;40.50;33.45;;;;;;;10.20;nan;103047.25;5016909;28;20033;-51
2022/03/22 07:28:57;;;;;;;39.83;32.22;;;;;;;10.08;nan;102998.03;5016625;28;20076;-49
2022/03/22 07:31:23;;;;;;;37.33;30.95;;;;;;;10.95;nan;103072.03;5033028;28;20489;-51
2022/03/22 07:33:48;;;;;;;37.83;31.85;;;;;;;10.93;nan;103036.91;5032814;28;20205;-48
2022/03/22 07:36:14;;;;;;;35.72;31.00;;;;;;;11.53;nan;103087.00;5034082;28;20034;-48
2022/03/22 07:38:39;;;;;;;34.95;30.15;;;;;;;11.71;nan;103078.22;5033126;28;20128;-49
2022/03/22 07:41:07;;;;;;;36.17;30.05;;;;;;;11.85;nan;103039.47;5034521;28;20393;-50
2022/03/22 07:43:32;;;;;;;39.13;30.13;;;;;;;12.46;nan;103095.59;5033792;28;20045;-52
2022/03/22 07:45:57;;;;;;;35.63;30.30;;;;;;;12.77;nan;103091.03;5017701;28;20045;-49
2022/03/22 07:48:23;;;;;;;35.85;28.77;;;;;;;12.91;nan;103097.97;5034919;28;20038;-51
2022/03/22 07:53:32;;;;;;;32.55;28.50;;;;;;;13.75;nan;103092.91;5035034;28;20083;-55
2022/03/22 07:55:58;;;;;;;32.67;28.73;;;;;;;13.95;nan;103055.66;5033542;28;20485;-53
2022/03/22 07:58:23;;;;;;;32.60;27.42;;;;;;;13.95;nan;103045.06;5034356;28;20029;-54
2022/03/22 08:00:49;;;;;;;33.20;28.80;;;;;;;14.41;nan;103109.88;5034753;28;20103;-54
2022/03/22 08:03:17;;;;;;;33.38;27.35;;;;;;;14.54;nan;103115.88;5033786;28;20041;-51
2022/03/22 08:05:46;;;;;;;30.42;26.48;;;;;;;14.53;nan;103063.78;5033730;28;20539;-55
2022/03/22 08:08:12;;;;;;;34.67;26.77;;;;;;;15.02;nan;103115.22;5016101;28;20040;-52
2022/03/22 08:10:37;;;;;;;28.80;25.67;;;;;;;15.45;nan;103122.50;4999432;28;20493;-53
2022/03/22 08:13:03;;;;;;;34.85;28.40;;;;;;;15.85;nan;103125.41;5033577;28;20040;-56
2022/03/22 08:15:28;;;;;;;31.92;26.45;;;;;;;15.71;nan;103126.50;5033761;28;20037;-54
2022/03/22 08:17:54;;;;;;;31.75;27.00;;;;;;;16.00;nan;103130.41;5033414;28;20053;-56
2022/03/22 08:20:20;;;;;;;27.58;24.58;;;;;;;16.32;nan;103138.63;5033461;28;20035;-57
2022/03/22 08:22:59;;;;;;;27.85;24.95;;;;;;;15.91;nan;103080.97;5032792;28;20045;-52
2022/03/22 08:25:27;;;;;;;29.27;25.27;;;;;;;16.77;nan;103128.88;5032969;28;20034;-52
2022/03/22 08:27:54;;;;;;;29.00;25.88;;;;;;;16.94;nan;103145.31;5032853;28;20041;-53
2022/03/22 08:30:21;;;;;;;28.92;24.90;;;;;;;17.23;nan;103142.00;5015429;28;20056;-51
2022/03/22 08:32:49;;;;;;;28.58;25.40;;;;;;;16.95;nan;103090.34;5015756;28;20053;-52
2022/03/22 08:35:15;;;;;;;29.40;25.20;;;;;;;17.17;nan;103131.47;5015614;28;20079;-53
2022/03/22 08:37:40;;;;;;;30.80;25.60;;;;;;;17.90;nan;103146.53;5033442;28;20041;-54
2022/03/22 08:40:06;;;;;;;28.60;25.35;;;;;;;17.47;nan;103093.47;5033316;28;20117;-52
2022/03/22 08:42:32;;;;;;;31.40;25.38;;;;;;;17.48;nan;103095.25;5032902;28;20038;-54
2022/03/22 08:44:57;;;;;;;27.88;25.02;;;;;;;17.83;nan;103139.63;5015161;28;20091;-51
2022/03/22 08:47:23;;;;;;;29.67;23.45;;;;;;;17.95;nan;103141.94;5032917;28;20100;-51
2022/03/22 08:49:50;;;;;;;26.73;23.30;;;;;;;18.58;nan;103152.66;5033113;28;20041;-55
2022/03/22 08:52:15;;;;;;;27.27;24.38;;;;;;;18.66;nan;103155.09;5032998;28;20042;-55
2022/03/22 08:54:41;;;;;;;29.52;23.15;;;;;;;18.49;nan;103097.78;5032774;28;20439;-54
2022/03/22 08:57:06;;;;;;;28.58;24.17;;;;;;;18.74;nan;103105.06;5032786;28;20044;-53
2022/03/22 08:59:31;;;;;;;24.95;22.35;;;;;;;19.19;nan;103132.09;5032843;28;20041;-50
2022/03/22 09:01:58;;;;;;;25.02;22.42;;;;;;;19.34;nan;103142.28;5032702;28;20044;-55
2022/03/22 09:07:08;;;;;;;25.95;23.13;;;;;;;19.87;nan;103170.78;5032621;28;20053;-56
2022/03/22 09:09:34;;;;;;;26.90;22.30;;;;;;;19.80;nan;103107.78;5033169;28;20432;-55
2022/03/22 09:11:59;;;;;;;27.35;22.38;;;;;;;19.89;nan;103168.06;5032413;28;20087;-54
2022/03/22 09:14:25;;;;;;;23.17;20.70;;;;;;;19.80;nan;103106.91;5014971;28;20033;-55
2022/03/22 09:16:50;;;;;;;23.08;20.40;;;;;;;20.56;nan;103175.44;5014455;28;20124;-56
2022/03/22 09:19:15;;;;;;;25.25;21.30;;;;;;;20.63;nan;103150.22;5032425;28;20026;-57
2022/03/22 09:21:41;;;;;;;22.63;20.23;;;;;;;21.10;nan;103174.31;5032294;28;20033;-52
2022/03/22 09:24:07;;;;;;;24.80;22.20;;;;;;;21.29;nan;103156.53;5032470;28;20555;-50
2022/03/22 09:26:33;;;;;;;24.70;21.52;;;;;;;21.07;nan;103161.00;5032139;28;20483;-57
2022/03/22 09:28:58;;;;;;;22.23;19.63;;;;;;;21.13;nan;103153.59;5014502;28;20084;-56
2022/03/22 09:31:24;;;;;;;24.58;20.42;;;;;;;21.14;nan;103159.84;5032101;28;20057;-55
2022/03/22 09:33:51;;;;;;;24.70;21.10;;;;;;;21.67;nan;103161.19;5031888;28;20123;-56
2022/03/22 09:36:17;;;;;;;26.77;21.30;;;;;;;21.75;nan;103145.66;5014029;28;20029;-57
2022/03/22 09:38:44;;;;;;;23.55;19.88;;;;;;;;;;5031994;28;20033;-54
2022/03/22 09:41:12;;;;;;;23.30;20.80;;;;;;;;;;5031859;28;20461;-54
2022/03/22 09:43:38;;;;;;;21.70;19.45;;;;;;;;;;5031777;28;20428;-53
2022/03/22 09:46:04;;;;;;;22.42;20.05;;;;;;;23.11;nan;103167.22;5032028;28;20045;-57
2022/03/22 09:48:31;;;;;;;22.73;20.33;;;;;;;23.37;nan;103151.56;5032100;28;20029;-56
2022/03/22 09:53:41;;;;;;;23.15;19.90;;;;;;;23.33;nan;103157.16;5031965;28;20499;-56
2022/03/22 09:56:07;;;;;;;25.33;19.52;;;;;;;23.42;nan;103113.72;5013743;28;20033;-54
2022/03/22 09:58:33;;;;;;;22.30;19.55;;;;;;;23.48;nan;103148.38;5031572;28;20037;-56
2022/03/22 10:00:58;;;;;;;21.20;18.92;;;;;;;23.83;nan;103160.91;5031569;28;20044;-55
2022/03/22 10:03:23;;;;;;;22.83;20.30;;;;;;;24.03;nan;103143.72;5030394;28;20448;-56
2022/03/22 10:06:04;;;;;;;25.13;19.00;;;;;;;24.26;nan;103150.59;5031518;28;20394;-55
2022/03/22 10:08:29;;;;;;;22.45;19.17;;;;;;;24.51;nan;103148.34;5013850;28;20033;-56
2022/03/22 10:10:58;;;;;;;21.48;18.35;;;;;;;24.29;nan;103150.44;5031655;28;20029;-56
2022/03/22 10:13:24;;;;;;;22.10;19.80;;;;;;;24.49;nan;103140.31;5031562;28;20462;-56
2022/03/22 10:15:49;;;;;;;20.88;18.75;;;;;;;24.50;nan;103147.47;5029773;28;20048;-58
2022/03/22 10:18:22;;;;;;;20.67;18.02;;;;;;;24.32;nan;103153.84;5031906;28;20038;-57
2022/03/22 10:20:49;;;;;;;21.40;18.83;;;;;;;24.03;nan;103143.72;5030760;28;20132;-56
2022/03/22 10:23:15;;;;;;;23.10;18.45;;;;;;;24.13;nan;103152.22;5030998;28;20033;-56
2022/03/22 10:25:41;;;;;;;22.67;19.25;;;;;;;24.73;nan;103143.50;5031369;28;20037;-59
2022/03/22 10:28:08;;;;;;;20.40;18.27;;;;;;;24.80;nan;103112.63;5031048;28;20096;-55
2022/03/22 10:30:34;;;;;;;21.42;17.90;;;;;;;24.86;nan;103114.97;5031086;28;20040;-58
2022/03/22 10:33:00;;;;;;;20.75;17.10;;;;;;;25.27;nan;103141.38;5013494;28;20201;-53
2022/03/22 10:35:33;;;;;;;23.08;18.83;;;;;;;25.49;nan;103147.25;5030071;28;20041;-53
2022/03/22 10:38:04;;;;;;;21.90;19.52;;;;;;;25.83;nan;103140.75;5013363;28;20488;-58
2022/03/22 10:40:32;;;;;;;22.40;19.95;;;;;;;;;;4997193;28;20320;-58
2022/03/22 10:43:18;;;;;;;25.73;19.35;;;;;;;;;;5030913;28;20397;-57
2022/03/22 10:45:44;;;;;;;22.70;18.48;;;;;;;;;;5030700;28;20049;-58
2022/03/22 10:48:15;;;;;;;22.35;18.90;;;;;;;26.49;nan;103141.13;5034914;28;20025;-59
2022/03/22 10:50:41;;;;;;;21.83;18.77;;;;;;;;;;5018309;28;20183;-57
2022/03/22 10:53:06;;;;;;;23.40;17.63;;;;;;;;;;5035883;28;20044;-59
2022/03/22 10:55:32;;;;;;;21.88;18.40;;;;;;;;;;5036135;28;20045;-58
2022/03/22 10:57:58;;;;;;;20.00;17.40;;;;;;;;;;5036112;28;20034;-58
2022/03/22 11:00:24;;;;;;;20.60;17.65;;;;;;;;;;5017940;28;20084;-55
2022/03/22 11:02:51;;;;;;;23.00;19.02;;;;;;;;;;5035765;28;20508;-56
2022/03/22 11:05:20;;;;;;;19.73;16.92;;;;;;;;;;5035910;28;20033;-57
2022/03/22 11:07:46;;;;;;;18.85;16.77;;;;;;;;;;5035867;28;20084;-59
2022/03/22 11:10:12;;;;;;;19.85;16.73;;;;;;;;;;5035770;28;20400;-59
2022/03/22 11:12:38;;;;;;;19.38;16.08;;;;;;;;;;5035618;28;20044;-54
2022/03/22 11:15:04;;;;;;;16.73;14.88;;;;;;;;;;5034705;28;20030;-55
2022/03/22 11:17:36;;;;;;;15.93;14.35;;;;;;;;;;5034571;28;20029;-57
2022/03/22 11:20:04;;;;;;;17.92;15.38;;;;;;;;;;5034799;28;20036;-56
2022/03/22 11:22:30;;;;;;;24.02;17.17;;;;;;;;;;5034490;28;20053;-54
2022/03/22 11:25:05;;;;;;;18.02;15.60;;;;;;;;;;5034516;28;20041;-57
2022/03/22 11:27:30;;;;;;;16.70;15.00;;;;;;;;;;5034142;28;20515;-59
2022/03/22 11:29:56;;;;;;;18.58;15.82;;;;;;;;;;5034624;28;20146;-53
2022/03/22 11:35:12;;;;;;;19.60;16.80;;;;;;;27.13;nan;103046.81;5034242;28;20125;-59
2022/03/22 11:37:38;;;;;;;20.35;15.70;;;;;;;27.20;nan;103126.53;5000683;28;20039;-56
2022/03/22 11:42:52;;;;;;;15.02;13.48;;;;;;;27.71;nan;103118.59;5035222;28;20071;-55
2022/03/22 11:45:19;;;;;;;16.10;13.80;;;;;;;27.75;nan;103082.25;5017428;28;20069;-57
2022/03/22 11:47:49;;;;;;;17.55;14.55;;;;;;;27.18;nan;103079.81;5035020;28;20041;-54
2022/03/22 11:50:17;;;;;;;15.70;13.75;;;;;;;27.31;nan;103087.97;5033338;28;20029;-56
2022/03/22 11:52:44;;;;;;;13.60;12.20;;;;;;;27.41;nan;103109.84;5032321;28;20248;-55
2022/03/22 11:55:12;;;;;;;13.93;11.65;;;;;;;27.56;nan;103111.53;5034008;28;20037;-57
2022/03/22 11:57:46;;;;;;;13.02;11.60;;;;;;;27.70;nan;103106.06;5015296;28;20041;-54
2022/03/22 12:00:17;;;;;;;12.05;9.60;;;;;;;28.16;nan;103115.44;5033900;28;20100;-56
2022/03/22 12:02:44;;;;;;;10.68;9.57;;;;;;;28.26;nan;103084.00;5033191;28;20033;-54
2022/03/22 12:05:10;;;;;;;11.93;10.73;;;;;;;27.71;nan;103110.47;5015308;28;20053;-56
2022/03/22 12:07:38;;;;;;;12.35;10.93;;;;;;;27.49;nan;103107.53;5034447;28;20021;-56
2022/03/22 12:10:13;;;;;;;10.27;8.90;;;;;;;27.22;nan;103111.09;5034416;28;20400;-59
2022/03/22 12:12:41;;;;;;;11.13;9.48;;;;;;;27.55;nan;103099.88;5034553;28;20044;-56